createdAt,value
2019-02-22T00:00:42.491Z,9.19
2019-02-22T00:05:38.389Z,9.18
2019-02-22T00:10:34.304Z,9.21
2019-02-22T00:15:32.160Z,9.19
2019-02-22T00:20:28.162Z,9.17
2019-02-22T00:25:24.103Z,9.15
2019-02-22T00:30:21.566Z,9.13
2019-02-22T00:35:17.741Z,9.12
2019-02-22T00:40:13.714Z,9.12
2019-02-22T00:45:09.604Z,9.12
2019-02-22T00:50:05.621Z,9.12
2019-02-22T00:55:01.523Z,9.15
2019-02-22T00:59:57.445Z,9.11
2019-02-22T01:04:53.389Z,9.13
2019-02-22T01:09:49.299Z,9.09
2019-02-22T01:14:46.470Z,9.08
2019-02-22T01:19:42.344Z,9.10
2019-02-22T01:24:38.391Z,9.08
2019-02-22T01:29:34.303Z,9.09
2019-02-22T01:34:30.215Z,9.13
2019-02-22T01:39:26.121Z,9.14
2019-02-22T01:44:22.181Z,9.14
2019-02-22T01:49:18.090Z,9.11
2019-02-22T01:54:13.999Z,9.09
2019-02-22T01:59:09.898Z,9.17
2019-02-22T02:04:05.923Z,9.32
2019-02-22T02:09:02.742Z,9.23
2019-02-22T02:13:58.738Z,9.26
2019-02-22T02:18:54.647Z,9.27
2019-02-22T02:23:50.566Z,9.22
2019-02-22T02:28:46.466Z,9.31
2019-02-22T02:33:42.374Z,9.38
2019-02-22T02:38:38.272Z,9.21
2019-02-22T02:43:34.175Z,9.16
2019-02-22T02:48:30.076Z,9.11
2019-02-22T02:53:25.988Z,9.04
2019-02-22T02:58:21.989Z,9.03
2019-02-22T03:03:17.927Z,9.00
2019-02-22T03:08:13.911Z,9.08
2019-02-22T03:13:09.814Z,9.07
2019-02-22T03:18:05.724Z,9.01
2019-02-22T03:23:01.621Z,8.97
2019-02-22T03:27:57.559Z,8.97
2019-02-22T03:32:54.516Z,8.96
2019-02-22T03:37:50.424Z,9.00
2019-02-22T03:42:46.327Z,8.97
2019-02-22T03:47:42.230Z,8.95
2019-02-22T03:52:43.286Z,8.93
2019-02-22T03:57:39.204Z,8.91
2019-02-22T04:02:35.192Z,8.87
2019-02-22T04:07:31.071Z,8.85
2019-02-22T04:12:26.971Z,8.91
2019-02-22T04:17:22.887Z,8.93
2019-02-22T04:22:19.013Z,8.92
2019-02-22T04:27:14.919Z,8.92
2019-02-22T04:32:10.902Z,8.90
2019-02-22T04:37:06.817Z,8.91
2019-02-22T04:42:02.729Z,8.93
2019-02-22T04:46:58.633Z,8.91
2019-02-22T04:51:54.561Z,8.89
2019-02-22T04:56:50.488Z,8.90
2019-02-22T05:01:46.405Z,8.90
2019-02-22T05:06:42.360Z,8.94
2019-02-22T05:11:38.278Z,8.98
2019-02-22T05:16:34.173Z,9.03
2019-02-22T05:21:30.177Z,9.04
2019-02-22T05:26:26.080Z,9.04
2019-02-22T05:31:22.087Z,9.13
2019-02-22T05:36:18.003Z,9.21
2019-02-22T05:41:13.922Z,9.23
2019-02-22T05:46:09.828Z,9.18
2019-02-22T05:51:05.732Z,9.26
2019-02-22T05:56:01.657Z,9.35
2019-02-22T06:00:57.645Z,9.28
2019-02-22T06:05:53.644Z,9.10
2019-02-22T06:10:49.534Z,8.94
2019-02-22T06:15:46.304Z,8.86
2019-02-22T06:20:42.194Z,8.78
2019-02-22T06:25:38.139Z,8.86
2019-02-22T06:30:34.032Z,9.39
2019-02-22T06:35:29.926Z,9.61
2019-02-22T06:40:25.825Z,9.54
2019-02-22T06:45:26.168Z,9.42
2019-02-22T06:50:33.154Z,9.34
2019-02-22T06:55:19.877Z,9.39
2019-02-22T07:00:15.770Z,9.36
2019-02-22T07:05:11.672Z,9.14
2019-02-22T07:10:09.174Z,9.43
2019-02-22T07:15:07.220Z,9.34
2019-02-22T07:20:06.604Z,9.54
2019-02-22T07:25:06.029Z,9.37
2019-02-22T07:30:02.813Z,9.56
2019-02-22T07:34:58.749Z,9.79
2019-02-22T07:39:54.647Z,9.69
2019-02-22T07:45:11.384Z,9.62
2019-02-22T07:50:08.786Z,9.80
2019-02-22T07:55:06.383Z,9.83
2019-02-22T08:00:05.882Z,9.90
2019-02-22T08:05:01.905Z,10.02
2019-02-22T08:09:57.802Z,9.82
2019-02-22T08:14:54.770Z,9.95
2019-02-22T08:19:50.793Z,10.09
2019-02-22T08:24:47.653Z,9.96
2019-02-22T08:29:43.594Z,9.82
2019-02-22T08:34:39.482Z,9.92
2019-02-22T08:39:35.368Z,9.86
2019-02-22T08:44:31.992Z,9.84
2019-02-22T08:49:27.902Z,9.78
2019-02-22T08:54:23.807Z,9.78
2019-02-22T08:59:19.700Z,9.89
2019-02-22T09:04:15.604Z,9.99
2019-02-22T09:09:11.501Z,9.90
2019-02-22T09:14:07.391Z,9.67
2019-02-22T09:19:03.403Z,9.65
2019-02-22T09:23:59.315Z,9.74
2019-02-22T09:28:55.660Z,9.84
2019-02-22T09:33:51.593Z,9.81
2019-02-22T09:38:51.520Z,9.95
2019-02-22T09:43:55.411Z,9.87
2019-02-22T09:48:50.637Z,9.71
2019-02-22T09:53:50.284Z,9.51
2019-02-22T09:58:47.633Z,9.61
2019-02-22T10:03:44.855Z,9.68
2019-02-22T10:08:40.767Z,9.93
2019-02-22T10:13:36.653Z,9.93
2019-02-22T10:18:32.544Z,9.97
2019-02-22T10:23:28.433Z,9.97
2019-02-22T10:28:24.347Z,10.02
2019-02-22T10:33:20.246Z,9.88
2019-02-22T10:38:16.129Z,10.09
2019-02-22T10:43:12.019Z,9.85
2019-02-22T10:48:07.913Z,9.83
2019-02-22T10:53:03.901Z,9.89
2019-02-22T10:57:59.781Z,9.83
2019-02-22T11:02:55.715Z,9.74
2019-02-22T11:07:51.568Z,9.79
2019-02-22T11:12:47.674Z,9.75
2019-02-22T11:17:43.574Z,9.73
2019-02-22T11:22:39.462Z,9.94
2019-02-22T11:27:35.383Z,9.90
2019-02-22T11:32:31.280Z,9.96
2019-02-22T11:37:27.179Z,9.93
2019-02-22T11:42:23.297Z,9.85
2019-02-22T11:47:20.518Z,9.87
2019-02-22T11:52:16.417Z,9.70
2019-02-22T11:57:14.636Z,9.84
2019-02-22T12:02:10.677Z,10.07
2019-02-22T12:07:06.569Z,10.12
2019-02-22T12:12:02.828Z,9.96
2019-02-22T12:16:58.725Z,10.17
2019-02-22T12:21:54.618Z,10.17
2019-02-22T12:26:53.280Z,10.37
2019-02-22T12:31:50.202Z,10.59
2019-02-22T12:36:46.102Z,10.72
2019-02-22T12:41:41.984Z,10.53
2019-02-22T12:46:38.029Z,10.96
2019-02-22T12:51:34.942Z,11.36
2019-02-22T12:56:55.920Z,11.51
2019-02-22T13:01:28.768Z,11.25
2019-02-22T13:06:26.286Z,11.19
2019-02-22T13:11:22.408Z,11.70
2019-02-22T13:16:18.410Z,11.42
2019-02-22T13:21:14.380Z,11.59
2019-02-22T13:26:10.316Z,11.05
2019-02-22T13:31:06.612Z,11.28
2019-02-22T13:36:02.627Z,11.35
2019-02-22T13:40:58.510Z,11.35
2019-02-22T13:45:54.847Z,11.47
2019-02-22T13:50:50.768Z,11.33
2019-02-22T13:55:46.631Z,11.47
2019-02-22T14:00:42.519Z,11.40
2019-02-22T14:05:38.426Z,11.25
2019-02-22T14:10:34.342Z,11.17
2019-02-22T14:15:38.100Z,11.10
2019-02-22T14:20:31.020Z,11.26
2019-02-22T14:25:26.916Z,11.25
2019-02-22T14:30:22.824Z,11.31
2019-02-22T14:35:18.797Z,11.23
2019-02-22T14:40:14.715Z,11.28
2019-02-22T14:45:13.107Z,11.35
2019-02-22T14:50:11.899Z,11.21
2019-02-22T14:55:08.325Z,11.27
2019-02-22T15:00:08.139Z,11.09
2019-02-22T15:05:08.969Z,11.12
2019-02-22T15:10:06.262Z,11.15
2019-02-22T15:15:04.884Z,10.96
2019-02-22T15:20:00.873Z,10.90
2019-02-22T15:24:56.804Z,10.71
2019-02-22T15:29:52.692Z,10.68
2019-02-22T15:34:48.696Z,10.71
2019-02-22T15:39:44.631Z,10.47
2019-02-22T15:44:43.982Z,10.26
2019-02-22T15:49:39.988Z,10.34
2019-02-22T15:54:35.880Z,10.26
2019-02-22T15:59:31.769Z,10.13
2019-02-22T16:04:29.556Z,10.03
2019-02-22T16:09:25.579Z,9.94
2019-02-22T16:14:21.459Z,9.86
2019-02-22T16:19:17.354Z,9.77
2019-02-22T16:24:15.607Z,9.68
2019-02-22T16:29:12.628Z,9.63
2019-02-22T16:34:08.629Z,9.57
2019-02-22T16:39:05.213Z,9.51
2019-02-22T16:44:01.760Z,9.44
2019-02-22T16:48:57.661Z,9.42
2019-02-22T16:53:53.570Z,9.22
2019-02-22T16:58:49.463Z,9.35
2019-02-22T17:03:45.415Z,9.15
2019-02-22T17:08:41.291Z,9.24
2019-02-22T17:13:38.014Z,9.22
2019-02-22T17:18:34.005Z,9.08
2019-02-22T17:23:29.894Z,8.88
2019-02-22T17:28:25.786Z,8.74
2019-02-22T17:33:21.679Z,8.94
2019-02-22T17:38:17.582Z,8.85
2019-02-22T17:43:13.475Z,8.74
2019-02-22T17:48:09.352Z,8.76
2019-02-22T17:53:05.237Z,8.52
2019-02-22T17:58:01.140Z,8.44
2019-02-22T18:02:57.031Z,8.43
2019-02-22T18:07:52.940Z,8.46
2019-02-22T18:12:48.832Z,8.29
2019-02-22T18:17:45.618Z,8.39
2019-02-22T18:22:42.224Z,8.48
2019-02-22T18:27:38.131Z,8.41
2019-02-22T18:32:34.020Z,8.17
2019-02-22T18:37:29.908Z,8.10
2019-02-22T18:42:25.815Z,8.06
2019-02-22T18:47:21.712Z,7.91
2019-02-22T18:52:17.594Z,7.86
2019-02-22T18:57:13.508Z,7.68
2019-02-22T19:02:09.394Z,7.50
2019-02-22T19:07:05.386Z,7.39
2019-02-22T19:12:01.275Z,7.05
2019-02-22T19:16:57.164Z,6.89
2019-02-22T19:21:53.055Z,6.88
2019-02-22T19:26:48.970Z,6.74
2019-02-22T19:31:44.859Z,6.57
2019-02-22T19:36:40.766Z,6.34
2019-02-22T19:41:36.672Z,6.27
2019-02-22T19:46:32.555Z,6.17
2019-02-22T19:51:28.863Z,6.18
2019-02-22T19:56:24.754Z,6.30
2019-02-22T20:01:20.726Z,6.09
2019-02-22T20:06:16.611Z,5.73
2019-02-22T20:11:12.503Z,5.86
2019-02-22T20:16:08.395Z,5.86
2019-02-22T20:21:04.293Z,5.67
2019-02-22T20:26:00.219Z,5.77
2019-02-22T20:30:56.132Z,5.66
2019-02-22T20:35:52.032Z,5.74
2019-02-22T20:40:47.930Z,5.65
2019-02-22T20:45:46.310Z,5.30
2019-02-22T20:50:42.299Z,4.98
2019-02-22T20:55:38.200Z,4.78
2019-02-22T21:00:34.204Z,4.94
2019-02-22T21:05:30.089Z,4.97
2019-02-22T21:10:25.976Z,4.85
2019-02-22T21:15:26.919Z,4.88
2019-02-22T21:20:22.784Z,4.62
2019-02-22T21:25:18.698Z,4.77
2019-02-22T21:30:19.211Z,4.63
2019-02-22T21:35:15.092Z,4.53
2019-02-22T21:40:12.428Z,4.48
2019-02-22T21:45:13.330Z,4.22
2019-02-22T21:50:15.288Z,4.20
2019-02-22T21:55:12.378Z,4.34
2019-02-22T22:00:22.784Z,4.66
2019-02-22T22:05:18.687Z,4.50
2019-02-22T22:10:14.636Z,4.09
2019-02-22T22:15:15.560Z,3.92
2019-02-22T22:20:11.802Z,4.00
2019-02-22T22:25:09.615Z,3.72
2019-02-22T22:30:09.411Z,4.11
2019-02-22T22:35:07.995Z,4.25
2019-02-22T22:40:04.679Z,4.25
2019-02-22T22:45:11.295Z,4.31
2019-02-22T22:50:35.765Z,4.23
2019-02-22T22:55:36.927Z,4.11
2019-02-22T23:00:50.911Z,4.10
2019-02-22T23:05:47.760Z,4.17
2019-02-22T23:10:44.647Z,4.23
2019-02-22T23:15:41.311Z,4.28
2019-02-22T23:20:37.214Z,4.39
2019-02-22T23:25:33.122Z,4.39
2019-02-22T23:30:29.018Z,4.52
2019-02-22T23:35:24.909Z,4.54
2019-02-22T23:40:20.812Z,4.52
2019-02-22T23:45:18.664Z,4.50
2019-02-22T23:50:14.711Z,4.52
2019-02-22T23:55:10.605Z,4.54
